sensor_id;sensor_type;location;lat;lon;timestamp;P1;durP1;ratioP1;P2;durP2;ratioP2
23072;SDS011;34865;51.046;3.732;2022-07-05T00:02:24;11.70;;;3.58;;
23072;SDS011;34865;51.046;3.732;2022-07-05T00:04:50;6.55;;;3.65;;
23072;SDS011;34865;51.046;3.732;2022-07-05T00:07:16;10.85;;;3.72;;
23072;SDS011;34865;51.046;3.732;2022-07-05T00:09:43;11.73;;;4.13;;
23072;SDS011;34865;51.046;3.732;2022-07-05T00:12:29;10.60;;;3.75;;
23072;SDS011;34865;51.046;3.732;2022-07-05T00:14:57;8.73;;;4.00;;
23072;SDS011;34865;51.046;3.732;2022-07-05T00:17:24;7.78;;;4.22;;
23072;SDS011;34865;51.046;3.732;2022-07-05T00:19:50;12.25;;;4.68;;
23072;SDS011;34865;51.046;3.732;2022-07-05T00:22:15;11.70;;;4.45;;
23072;SDS011;34865;51.046;3.732;2022-07-05T00:24:41;10.68;;;4.75;;
23072;SDS011;34865;51.046;3.732;2022-07-05T00:27:06;11.35;;;3.60;;
23072;SDS011;34865;51.046;3.732;2022-07-05T00:29:32;12.95;;;4.32;;
23072;SDS011;34865;51.046;3.732;2022-07-05T00:31:58;12.48;;;4.75;;
23072;SDS011;34865;51.046;3.732;2022-07-05T00:34:24;8.15;;;4.18;;
23072;SDS011;34865;51.046;3.732;2022-07-05T00:36:50;8.43;;;4.22;;
23072;SDS011;34865;51.046;3.732;2022-07-05T00:39:15;12.82;;;4.03;;
23072;SDS011;34865;51.046;3.732;2022-07-05T00:41:41;13.88;;;4.53;;
23072;SDS011;34865;51.046;3.732;2022-07-05T00:44:08;12.57;;;4.55;;
23072;SDS011;34865;51.046;3.732;2022-07-05T00:46:35;10.52;;;3.95;;
23072;SDS011;34865;51.046;3.732;2022-07-05T00:49:02;9.15;;;4.53;;
23072;SDS011;34865;51.046;3.732;2022-07-05T00:51:29;11.63;;;4.18;;
23072;SDS011;34865;51.046;3.732;2022-07-05T00:53:56;7.80;;;4.47;;
23072;SDS011;34865;51.046;3.732;2022-07-05T00:56:23;16.13;;;4.00;;
23072;SDS011;34865;51.046;3.732;2022-07-05T00:58:50;10.23;;;4.03;;
23072;SDS011;34865;51.046;3.732;2022-07-05T01:01:16;10.20;;;4.18;;
23072;SDS011;34865;51.046;3.732;2022-07-05T01:03:43;9.20;;;4.32;;
23072;SDS011;34865;51.046;3.732;2022-07-05T01:06:09;8.82;;;3.65;;
23072;SDS011;34865;51.046;3.732;2022-07-05T01:08:40;12.52;;;3.85;;
23072;SDS011;34865;51.046;3.732;2022-07-05T01:11:10;7.55;;;3.72;;
23072;SDS011;34865;51.046;3.732;2022-07-05T01:13:37;8.65;;;3.95;;
23072;SDS011;34865;51.046;3.732;2022-07-05T01:16:03;7.75;;;3.58;;
23072;SDS011;34865;51.046;3.732;2022-07-05T01:18:29;6.75;;;3.67;;
23072;SDS011;34865;51.046;3.732;2022-07-05T01:20:56;12.00;;;4.03;;
23072;SDS011;34865;51.046;3.732;2022-07-05T01:23:23;10.57;;;4.28;;
23072;SDS011;34865;51.046;3.732;2022-07-05T01:25:51;9.50;;;4.03;;
23072;SDS011;34865;51.046;3.732;2022-07-05T01:28:18;9.35;;;4.47;;
23072;SDS011;34865;51.046;3.732;2022-07-05T01:30:44;8.13;;;4.60;;
23072;SDS011;34865;51.046;3.732;2022-07-05T01:33:10;14.32;;;5.90;;
23072;SDS011;34865;51.046;3.732;2022-07-05T01:35:35;12.60;;;5.25;;
23072;SDS011;34865;51.046;3.732;2022-07-05T01:38:02;15.85;;;5.50;;
23072;SDS011;34865;51.046;3.732;2022-07-05T01:40:28;17.17;;;5.18;;
23072;SDS011;34865;51.046;3.732;2022-07-05T01:42:53;16.08;;;5.78;;
23072;SDS011;34865;51.046;3.732;2022-07-05T01:45:19;7.93;;;5.40;;
23072;SDS011;34865;51.046;3.732;2022-07-05T01:48:06;14.88;;;6.43;;
23072;SDS011;34865;51.046;3.732;2022-07-05T01:50:57;16.80;;;5.85;;
23072;SDS011;34865;51.046;3.732;2022-07-05T01:53:32;10.07;;;6.10;;
23072;SDS011;34865;51.046;3.732;2022-07-05T01:56:02;9.25;;;5.53;;
23072;SDS011;34865;51.046;3.732;2022-07-05T01:58:29;13.65;;;5.68;;
23072;SDS011;34865;51.046;3.732;2022-07-05T02:00:56;11.10;;;5.90;;
23072;SDS011;34865;51.046;3.732;2022-07-05T02:03:23;8.30;;;5.72;;
23072;SDS011;34865;51.046;3.732;2022-07-05T02:05:49;17.10;;;6.00;;
23072;SDS011;34865;51.046;3.732;2022-07-05T02:08:15;11.98;;;5.72;;
23072;SDS011;34865;51.046;3.732;2022-07-05T02:10:42;10.65;;;5.38;;
23072;SDS011;34865;51.046;3.732;2022-07-05T02:13:08;9.25;;;5.80;;
23072;SDS011;34865;51.046;3.732;2022-07-05T02:15:36;9.45;;;6.60;;
23072;SDS011;34865;51.046;3.732;2022-07-05T02:18:03;11.93;;;5.85;;
23072;SDS011;34865;51.046;3.732;2022-07-05T02:20:31;11.40;;;5.43;;
23072;SDS011;34865;51.046;3.732;2022-07-05T02:22:58;12.73;;;6.30;;
23072;SDS011;34865;51.046;3.732;2022-07-05T02:25:24;11.52;;;5.63;;
23072;SDS011;34865;51.046;3.732;2022-07-05T02:27:50;17.07;;;6.13;;
23072;SDS011;34865;51.046;3.732;2022-07-05T02:30:17;9.80;;;5.40;;
23072;SDS011;34865;51.046;3.732;2022-07-05T02:32:43;10.70;;;5.57;;
23072;SDS011;34865;51.046;3.732;2022-07-05T02:35:09;12.02;;;5.70;;
23072;SDS011;34865;51.046;3.732;2022-07-05T02:37:35;8.20;;;5.07;;
23072;SDS011;34865;51.046;3.732;2022-07-05T02:40:02;9.30;;;5.30;;
23072;SDS011;34865;51.046;3.732;2022-07-05T02:42:29;9.43;;;5.07;;
23072;SDS011;34865;51.046;3.732;2022-07-05T02:44:55;7.70;;;5.43;;
23072;SDS011;34865;51.046;3.732;2022-07-05T02:47:21;10.03;;;5.73;;
23072;SDS011;34865;51.046;3.732;2022-07-05T02:49:46;11.53;;;6.00;;
23072;SDS011;34865;51.046;3.732;2022-07-05T02:52:12;10.30;;;5.05;;
23072;SDS011;34865;51.046;3.732;2022-07-05T02:54:38;11.90;;;5.17;;
23072;SDS011;34865;51.046;3.732;2022-07-05T02:57:04;7.33;;;4.60;;
23072;SDS011;34865;51.046;3.732;2022-07-05T02:59:30;12.33;;;5.53;;
23072;SDS011;34865;51.046;3.732;2022-07-05T03:01:56;9.67;;;5.20;;
23072;SDS011;34865;51.046;3.732;2022-07-05T03:04:22;12.20;;;5.53;;
23072;SDS011;34865;51.046;3.732;2022-07-05T03:06:48;10.43;;;5.20;;
23072;SDS011;34865;51.046;3.732;2022-07-05T03:09:13;15.83;;;6.70;;
23072;SDS011;34865;51.046;3.732;2022-07-05T03:11:39;9.33;;;5.77;;
23072;SDS011;34865;51.046;3.732;2022-07-05T03:14:05;11.50;;;5.67;;
23072;SDS011;34865;51.046;3.732;2022-07-05T03:16:30;18.57;;;6.23;;
23072;SDS011;34865;51.046;3.732;2022-07-05T03:18:56;12.93;;;5.37;;
23072;SDS011;34865;51.046;3.732;2022-07-05T03:21:22;16.37;;;5.93;;
23072;SDS011;34865;51.046;3.732;2022-07-05T03:23:48;11.43;;;5.90;;
23072;SDS011;34865;51.046;3.732;2022-07-05T03:26:14;10.30;;;5.50;;
23072;SDS011;34865;51.046;3.732;2022-07-05T03:28:39;12.90;;;5.97;;
23072;SDS011;34865;51.046;3.732;2022-07-05T03:31:05;12.53;;;6.37;;
23072;SDS011;34865;51.046;3.732;2022-07-05T03:33:31;13.03;;;6.83;;
23072;SDS011;34865;51.046;3.732;2022-07-05T03:35:56;8.52;;;5.05;;
23072;SDS011;34865;51.046;3.732;2022-07-05T03:38:22;11.80;;;6.70;;
23072;SDS011;34865;51.046;3.732;2022-07-05T03:40:48;11.27;;;6.40;;
23072;SDS011;34865;51.046;3.732;2022-07-05T03:43:14;20.67;;;6.80;;
23072;SDS011;34865;51.046;3.732;2022-07-05T03:45:39;12.00;;;5.83;;
23072;SDS011;34865;51.046;3.732;2022-07-05T03:48:05;21.33;;;7.63;;
23072;SDS011;34865;51.046;3.732;2022-07-05T03:50:31;14.30;;;6.53;;
23072;SDS011;34865;51.046;3.732;2022-07-05T03:52:56;20.40;;;6.47;;
23072;SDS011;34865;51.046;3.732;2022-07-05T03:55:22;16.13;;;6.93;;
23072;SDS011;34865;51.046;3.732;2022-07-05T03:57:47;30.13;;;15.30;;
23072;SDS011;34865;51.046;3.732;2022-07-05T04:00:13;9.03;;;6.13;;
23072;SDS011;34865;51.046;3.732;2022-07-05T04:02:40;12.23;;;6.10;;
23072;SDS011;34865;51.046;3.732;2022-07-05T04:05:06;13.93;;;5.82;;
23072;SDS011;34865;51.046;3.732;2022-07-05T04:07:32;11.53;;;7.07;;
23072;SDS011;34865;51.046;3.732;2022-07-05T04:09:58;14.03;;;7.30;;
23072;SDS011;34865;51.046;3.732;2022-07-05T04:12:24;20.25;;;7.20;;
23072;SDS011;34865;51.046;3.732;2022-07-05T04:14:50;13.57;;;6.43;;
23072;SDS011;34865;51.046;3.732;2022-07-05T04:17:15;11.88;;;6.45;;
23072;SDS011;34865;51.046;3.732;2022-07-05T04:19:41;15.47;;;6.60;;
23072;SDS011;34865;51.046;3.732;2022-07-05T04:22:06;17.00;;;6.63;;
23072;SDS011;34865;51.046;3.732;2022-07-05T04:24:32;13.93;;;7.03;;
23072;SDS011;34865;51.046;3.732;2022-07-05T04:27:18;13.97;;;6.60;;
23072;SDS011;34865;51.046;3.732;2022-07-05T04:29:43;12.77;;;6.37;;
23072;SDS011;34865;51.046;3.732;2022-07-05T04:32:09;18.87;;;6.33;;
23072;SDS011;34865;51.046;3.732;2022-07-05T04:34:34;13.10;;;6.47;;
23072;SDS011;34865;51.046;3.732;2022-07-05T04:37:00;11.67;;;6.40;;
23072;SDS011;34865;51.046;3.732;2022-07-05T04:39:25;20.10;;;6.50;;
23072;SDS011;34865;51.046;3.732;2022-07-05T04:41:51;13.30;;;6.20;;
23072;SDS011;34865;51.046;3.732;2022-07-05T04:44:17;14.50;;;5.82;;
23072;SDS011;34865;51.046;3.732;2022-07-05T04:46:42;18.85;;;6.20;;
23072;SDS011;34865;51.046;3.732;2022-07-05T04:49:08;18.33;;;7.20;;
23072;SDS011;34865;51.046;3.732;2022-07-05T04:51:33;15.23;;;6.03;;
23072;SDS011;34865;51.046;3.732;2022-07-05T04:53:59;14.13;;;7.25;;
23072;SDS011;34865;51.046;3.732;2022-07-05T04:56:24;13.73;;;7.10;;
23072;SDS011;34865;51.046;3.732;2022-07-05T04:58:50;17.83;;;7.22;;
23072;SDS011;34865;51.046;3.732;2022-07-05T05:01:16;18.15;;;6.90;;
23072;SDS011;34865;51.046;3.732;2022-07-05T05:03:41;32.37;;;9.67;;
23072;SDS011;34865;51.046;3.732;2022-07-05T05:06:07;19.40;;;7.78;;
23072;SDS011;34865;51.046;3.732;2022-07-05T05:08:32;16.67;;;7.47;;
23072;SDS011;34865;51.046;3.732;2022-07-05T05:10:58;17.23;;;6.60;;
23072;SDS011;34865;51.046;3.732;2022-07-05T05:13:24;18.70;;;7.25;;
23072;SDS011;34865;51.046;3.732;2022-07-05T05:15:49;17.17;;;7.38;;
23072;SDS011;34865;51.046;3.732;2022-07-05T05:18:15;22.13;;;7.90;;
23072;SDS011;34865;51.046;3.732;2022-07-05T05:20:43;14.68;;;7.28;;
23072;SDS011;34865;51.046;3.732;2022-07-05T05:23:09;14.98;;;7.65;;
23072;SDS011;34865;51.046;3.732;2022-07-05T05:25:34;18.00;;;8.30;;
23072;SDS011;34865;51.046;3.732;2022-07-05T05:28:01;19.23;;;7.82;;
23072;SDS011;34865;51.046;3.732;2022-07-05T05:30:27;26.27;;;8.38;;
23072;SDS011;34865;51.046;3.732;2022-07-05T05:32:52;30.65;;;14.95;;
23072;SDS011;34865;51.046;3.732;2022-07-05T05:35:18;20.33;;;8.63;;
23072;SDS011;34865;51.046;3.732;2022-07-05T05:37:49;26.13;;;8.00;;
23072;SDS011;34865;51.046;3.732;2022-07-05T05:40:20;17.73;;;7.82;;
23072;SDS011;34865;51.046;3.732;2022-07-05T05:42:47;20.38;;;7.70;;
23072;SDS011;34865;51.046;3.732;2022-07-05T05:45:13;22.55;;;8.63;;
23072;SDS011;34865;51.046;3.732;2022-07-05T05:47:46;14.80;;;7.78;;
23072;SDS011;34865;51.046;3.732;2022-07-05T05:50:17;16.33;;;8.02;;
23072;SDS011;34865;51.046;3.732;2022-07-05T05:52:44;24.20;;;8.20;;
23072;SDS011;34865;51.046;3.732;2022-07-05T05:55:09;21.33;;;8.57;;
23072;SDS011;34865;51.046;3.732;2022-07-05T05:57:35;22.17;;;7.57;;
23072;SDS011;34865;51.046;3.732;2022-07-05T06:00:02;12.60;;;7.38;;
23072;SDS011;34865;51.046;3.732;2022-07-05T06:02:29;15.60;;;7.75;;
23072;SDS011;34865;51.046;3.732;2022-07-05T06:04:55;18.70;;;8.80;;
23072;SDS011;34865;51.046;3.732;2022-07-05T06:07:21;48.10;;;11.27;;
23072;SDS011;34865;51.046;3.732;2022-07-05T06:09:46;18.90;;;7.90;;
23072;SDS011;34865;51.046;3.732;2022-07-05T06:12:12;22.38;;;8.40;;
23072;SDS011;34865;51.046;3.732;2022-07-05T06:14:39;21.05;;;8.13;;
23072;SDS011;34865;51.046;3.732;2022-07-05T06:17:04;20.55;;;8.07;;
23072;SDS011;34865;51.046;3.732;2022-07-05T06:19:30;30.42;;;8.90;;
23072;SDS011;34865;51.046;3.732;2022-07-05T06:21:55;18.15;;;8.18;;
23072;SDS011;34865;51.046;3.732;2022-07-05T06:24:21;35.60;;;9.40;;
23072;SDS011;34865;51.046;3.732;2022-07-05T06:26:46;25.92;;;9.43;;
23072;SDS011;34865;51.046;3.732;2022-07-05T06:29:12;24.85;;;8.85;;
23072;SDS011;34865;51.046;3.732;2022-07-05T06:31:38;21.27;;;9.10;;
23072;SDS011;34865;51.046;3.732;2022-07-05T06:34:03;24.75;;;8.95;;
23072;SDS011;34865;51.046;3.732;2022-07-05T06:36:29;23.42;;;8.43;;
23072;SDS011;34865;51.046;3.732;2022-07-05T06:38:54;20.23;;;8.05;;
23072;SDS011;34865;51.046;3.732;2022-07-05T06:41:20;25.75;;;8.88;;
23072;SDS011;34865;51.046;3.732;2022-07-05T06:43:46;25.02;;;9.23;;
23072;SDS011;34865;51.046;3.732;2022-07-05T06:46:11;25.15;;;7.72;;
23072;SDS011;34865;51.046;3.732;2022-07-05T06:48:37;22.27;;;7.88;;
23072;SDS011;34865;51.046;3.732;2022-07-05T06:51:03;19.85;;;7.82;;
23072;SDS011;34865;51.046;3.732;2022-07-05T06:53:28;22.40;;;8.60;;
23072;SDS011;34865;51.046;3.732;2022-07-05T06:55:54;26.38;;;9.30;;
23072;SDS011;34865;51.046;3.732;2022-07-05T06:58:19;32.75;;;9.13;;
23072;SDS011;34865;51.046;3.732;2022-07-05T07:00:45;28.75;;;9.43;;
23072;SDS011;34865;51.046;3.732;2022-07-05T07:03:11;22.60;;;7.78;;
23072;SDS011;34865;51.046;3.732;2022-07-05T07:05:38;17.88;;;8.05;;
23072;SDS011;34865;51.046;3.732;2022-07-05T07:08:03;26.70;;;8.18;;
23072;SDS011;34865;51.046;3.732;2022-07-05T07:10:48;22.60;;;7.80;;
23072;SDS011;34865;51.046;3.732;2022-07-05T07:13:13;20.42;;;7.72;;
23072;SDS011;34865;51.046;3.732;2022-07-05T07:15:39;19.40;;;7.10;;
23072;SDS011;34865;51.046;3.732;2022-07-05T07:18:05;15.88;;;7.65;;
23072;SDS011;34865;51.046;3.732;2022-07-05T07:20:31;19.27;;;7.35;;
23072;SDS011;34865;51.046;3.732;2022-07-05T07:22:57;22.23;;;7.55;;
23072;SDS011;34865;51.046;3.732;2022-07-05T07:25:23;21.13;;;7.57;;
23072;SDS011;34865;51.046;3.732;2022-07-05T07:27:52;15.27;;;7.75;;
23072;SDS011;34865;51.046;3.732;2022-07-05T07:30:26;17.90;;;7.85;;
23072;SDS011;34865;51.046;3.732;2022-07-05T07:32:53;21.13;;;7.90;;
23072;SDS011;34865;51.046;3.732;2022-07-05T07:35:19;18.17;;;7.55;;
23072;SDS011;34865;51.046;3.732;2022-07-05T07:37:45;20.15;;;7.40;;
23072;SDS011;34865;51.046;3.732;2022-07-05T07:40:11;19.02;;;7.47;;
23072;SDS011;34865;51.046;3.732;2022-07-05T07:42:37;24.85;;;7.40;;
23072;SDS011;34865;51.046;3.732;2022-07-05T07:45:03;16.52;;;8.00;;
23072;SDS011;34865;51.046;3.732;2022-07-05T07:47:29;28.48;;;8.40;;
23072;SDS011;34865;51.046;3.732;2022-07-05T07:49:59;23.75;;;8.07;;
23072;SDS011;34865;51.046;3.732;2022-07-05T07:52:25;16.58;;;6.80;;
23072;SDS011;34865;51.046;3.732;2022-07-05T07:54:51;20.15;;;6.40;;
23072;SDS011;34865;51.046;3.732;2022-07-05T07:57:16;17.10;;;6.85;;
23072;SDS011;34865;51.046;3.732;2022-07-05T07:59:43;20.08;;;6.53;;
23072;SDS011;34865;51.046;3.732;2022-07-05T08:02:09;22.45;;;7.32;;
23072;SDS011;34865;51.046;3.732;2022-07-05T08:04:35;23.50;;;7.97;;
23072;SDS011;34865;51.046;3.732;2022-07-05T08:07:01;20.23;;;7.43;;
23072;SDS011;34865;51.046;3.732;2022-07-05T08:09:28;23.10;;;6.82;;
23072;SDS011;34865;51.046;3.732;2022-07-05T08:11:54;20.27;;;6.55;;
23072;SDS011;34865;51.046;3.732;2022-07-05T08:14:20;15.27;;;6.45;;
23072;SDS011;34865;51.046;3.732;2022-07-05T08:16:46;15.85;;;5.55;;
23072;SDS011;34865;51.046;3.732;2022-07-05T08:19:13;23.55;;;6.13;;
23072;SDS011;34865;51.046;3.732;2022-07-05T08:21:57;15.60;;;5.85;;
23072;SDS011;34865;51.046;3.732;2022-07-05T08:24:22;17.45;;;5.35;;
23072;SDS011;34865;51.046;3.732;2022-07-05T08:26:48;24.40;;;6.07;;
23072;SDS011;34865;51.046;3.732;2022-07-05T08:29:14;16.38;;;5.65;;
23072;SDS011;34865;51.046;3.732;2022-07-05T08:31:45;13.38;;;5.57;;
23072;SDS011;34865;51.046;3.732;2022-07-05T08:34:13;11.88;;;5.47;;
23072;SDS011;34865;51.046;3.732;2022-07-05T08:36:39;20.88;;;6.32;;
23072;SDS011;34865;51.046;3.732;2022-07-05T08:39:07;18.38;;;6.97;;
23072;SDS011;34865;51.046;3.732;2022-07-05T08:41:35;24.55;;;6.30;;
23072;SDS011;34865;51.046;3.732;2022-07-05T08:44:02;15.80;;;5.75;;
23072;SDS011;34865;51.046;3.732;2022-07-05T08:46:32;14.07;;;5.90;;
23072;SDS011;34865;51.046;3.732;2022-07-05T08:49:00;15.55;;;6.30;;
23072;SDS011;34865;51.046;3.732;2022-07-05T08:51:29;14.88;;;5.80;;
23072;SDS011;34865;51.046;3.732;2022-07-05T08:53:58;12.38;;;5.53;;
23072;SDS011;34865;51.046;3.732;2022-07-05T08:56:25;16.83;;;5.70;;
23072;SDS011;34865;51.046;3.732;2022-07-05T08:58:50;12.32;;;6.10;;
23072;SDS011;34865;51.046;3.732;2022-07-05T09:01:16;16.60;;;6.00;;
23072;SDS011;34865;51.046;3.732;2022-07-05T09:03:43;14.65;;;5.18;;
23072;SDS011;34865;51.046;3.732;2022-07-05T09:06:15;15.38;;;4.93;;
23072;SDS011;34865;51.046;3.732;2022-07-05T09:08:44;21.30;;;5.28;;
23072;SDS011;34865;51.046;3.732;2022-07-05T09:11:14;16.05;;;3.88;;
23072;SDS011;34865;51.046;3.732;2022-07-05T09:13:47;9.82;;;3.75;;
23072;SDS011;34865;51.046;3.732;2022-07-05T09:16:15;11.85;;;3.92;;
23072;SDS011;34865;51.046;3.732;2022-07-05T09:18:44;11.30;;;3.95;;
23072;SDS011;34865;51.046;3.732;2022-07-05T09:23:39;7.18;;;3.60;;
23072;SDS011;34865;51.046;3.732;2022-07-05T09:26:05;10.77;;;4.75;;
23072;SDS011;34865;51.046;3.732;2022-07-05T09:28:30;12.88;;;4.32;;
23072;SDS011;34865;51.046;3.732;2022-07-05T09:30:56;10.13;;;3.50;;
23072;SDS011;34865;51.046;3.732;2022-07-05T09:33:21;8.75;;;3.38;;
23072;SDS011;34865;51.046;3.732;2022-07-05T09:35:54;7.55;;;4.28;;
23072;SDS011;34865;51.046;3.732;2022-07-05T09:38:22;15.98;;;5.18;;
23072;SDS011;34865;51.046;3.732;2022-07-05T09:40:52;11.30;;;5.32;;
23072;SDS011;34865;51.046;3.732;2022-07-05T09:43:20;10.77;;;4.90;;
23072;SDS011;34865;51.046;3.732;2022-07-05T09:45:54;13.77;;;6.10;;
23072;SDS011;34865;51.046;3.732;2022-07-05T09:48:20;13.77;;;5.25;;
23072;SDS011;34865;51.046;3.732;2022-07-05T09:50:46;14.23;;;5.80;;
23072;SDS011;34865;51.046;3.732;2022-07-05T09:53:15;12.68;;;5.25;;
23072;SDS011;34865;51.046;3.732;2022-07-05T09:55:41;17.02;;;4.55;;
23072;SDS011;34865;51.046;3.732;2022-07-05T09:58:07;9.52;;;4.60;;
23072;SDS011;34865;51.046;3.732;2022-07-05T10:00:33;7.05;;;4.05;;
23072;SDS011;34865;51.046;3.732;2022-07-05T10:02:59;10.27;;;3.97;;
23072;SDS011;34865;51.046;3.732;2022-07-05T10:05:31;7.53;;;3.33;;
23072;SDS011;34865;51.046;3.732;2022-07-05T10:07:58;8.75;;;2.90;;
23072;SDS011;34865;51.046;3.732;2022-07-05T10:10:25;9.10;;;3.10;;
23072;SDS011;34865;51.046;3.732;2022-07-05T10:12:53;12.23;;;3.47;;
23072;SDS011;34865;51.046;3.732;2022-07-05T10:15:28;8.85;;;3.13;;
23072;SDS011;34865;51.046;3.732;2022-07-05T10:18:05;6.82;;;2.05;;
23072;SDS011;34865;51.046;3.732;2022-07-05T10:23:06;4.70;;;2.40;;
23072;SDS011;34865;51.046;3.732;2022-07-05T10:25:36;5.80;;;2.58;;
23072;SDS011;34865;51.046;3.732;2022-07-05T10:28:04;6.38;;;2.65;;
23072;SDS011;34865;51.046;3.732;2022-07-05T10:30:30;12.70;;;2.33;;
23072;SDS011;34865;51.046;3.732;2022-07-05T10:32:58;5.07;;;2.40;;
23072;SDS011;34865;51.046;3.732;2022-07-05T10:35:26;7.78;;;2.40;;
23072;SDS011;34865;51.046;3.732;2022-07-05T10:37:52;6.22;;;2.15;;
23072;SDS011;34865;51.046;3.732;2022-07-05T10:40:18;7.25;;;2.00;;
23072;SDS011;34865;51.046;3.732;2022-07-05T10:42:46;10.85;;;2.33;;
23072;SDS011;34865;51.046;3.732;2022-07-05T10:45:27;10.13;;;2.20;;
23072;SDS011;34865;51.046;3.732;2022-07-05T10:48:19;7.13;;;2.25;;
23072;SDS011;34865;51.046;3.732;2022-07-05T10:56:13;5.13;;;1.88;;
23072;SDS011;34865;51.046;3.732;2022-07-05T10:58:43;8.85;;;1.80;;
23072;SDS011;34865;51.046;3.732;2022-07-05T11:06:23;4.70;;;1.60;;
23072;SDS011;34865;51.046;3.732;2022-07-05T11:09:16;6.22;;;1.80;;
23072;SDS011;34865;51.046;3.732;2022-07-05T11:11:44;5.50;;;2.17;;
23072;SDS011;34865;51.046;3.732;2022-07-05T11:22:25;6.28;;;1.73;;
23072;SDS011;34865;51.046;3.732;2022-07-05T11:24:52;5.03;;;1.92;;
23072;SDS011;34865;51.046;3.732;2022-07-05T11:27:18;2.50;;;1.70;;
23072;SDS011;34865;51.046;3.732;2022-07-05T11:29:45;12.00;;;2.05;;
23072;SDS011;34865;51.046;3.732;2022-07-05T11:32:18;9.18;;;2.22;;
23072;SDS011;34865;51.046;3.732;2022-07-05T11:35:15;5.63;;;1.50;;
23072;SDS011;34865;51.046;3.732;2022-07-05T11:38:03;9.38;;;1.90;;
23072;SDS011;34865;51.046;3.732;2022-07-05T11:40:30;7.85;;;1.73;;
23072;SDS011;34865;51.046;3.732;2022-07-05T11:42:57;8.95;;;1.90;;
23072;SDS011;34865;51.046;3.732;2022-07-05T11:45:23;6.80;;;2.08;;
23072;SDS011;34865;51.046;3.732;2022-07-05T11:47:50;4.53;;;1.50;;
23072;SDS011;34865;51.046;3.732;2022-07-05T11:50:24;6.43;;;1.58;;
23072;SDS011;34865;51.046;3.732;2022-07-05T11:52:51;7.50;;;2.08;;
23072;SDS011;34865;51.046;3.732;2022-07-05T11:55:16;13.73;;;2.40;;
23072;SDS011;34865;51.046;3.732;2022-07-05T11:57:50;4.97;;;1.95;;
23072;SDS011;34865;51.046;3.732;2022-07-05T12:02:56;11.57;;;2.38;;
23072;SDS011;34865;51.046;3.732;2022-07-05T12:05:22;9.48;;;2.03;;
23072;SDS011;34865;51.046;3.732;2022-07-05T12:07:49;15.50;;;2.60;;
23072;SDS011;34865;51.046;3.732;2022-07-05T12:10:16;10.32;;;1.70;;
23072;SDS011;34865;51.046;3.732;2022-07-05T12:13:07;4.00;;;1.98;;
23072;SDS011;34865;51.046;3.732;2022-07-05T12:15:34;4.00;;;1.55;;
23072;SDS011;34865;51.046;3.732;2022-07-05T12:18:02;6.68;;;2.85;;
23072;SDS011;34865;51.046;3.732;2022-07-05T12:20:29;12.40;;;2.00;;
23072;SDS011;34865;51.046;3.732;2022-07-05T12:22:58;11.02;;;2.38;;
23072;SDS011;34865;51.046;3.732;2022-07-05T12:25:26;4.90;;;2.30;;
23072;SDS011;34865;51.046;3.732;2022-07-05T12:27:52;10.90;;;2.33;;
23072;SDS011;34865;51.046;3.732;2022-07-05T12:30:19;20.08;;;3.47;;
23072;SDS011;34865;51.046;3.732;2022-07-05T12:32:52;4.72;;;1.73;;
23072;SDS011;34865;51.046;3.732;2022-07-05T12:35:26;6.28;;;1.75;;
23072;SDS011;34865;51.046;3.732;2022-07-05T12:38:01;8.38;;;2.35;;
23072;SDS011;34865;51.046;3.732;2022-07-05T12:40:44;7.25;;;1.85;;
23072;SDS011;34865;51.046;3.732;2022-07-05T12:43:18;11.77;;;1.98;;
23072;SDS011;34865;51.046;3.732;2022-07-05T12:45:59;10.23;;;2.10;;
23072;SDS011;34865;51.046;3.732;2022-07-05T12:48:35;20.70;;;2.50;;
23072;SDS011;34865;51.046;3.732;2022-07-05T12:51:08;7.57;;;1.80;;
23072;SDS011;34865;51.046;3.732;2022-07-05T12:53:34;4.78;;;1.70;;
23072;SDS011;34865;51.046;3.732;2022-07-05T12:56:27;6.78;;;1.48;;
23072;SDS011;34865;51.046;3.732;2022-07-05T12:59:11;4.97;;;1.30;;
23072;SDS011;34865;51.046;3.732;2022-07-05T13:01:37;3.05;;;1.58;;
23072;SDS011;34865;51.046;3.732;2022-07-05T13:04:12;15.75;;;2.13;;
23072;SDS011;34865;51.046;3.732;2022-07-05T13:09:10;9.65;;;2.05;;
23072;SDS011;34865;51.046;3.732;2022-07-05T13:11:37;5.00;;;1.67;;
23072;SDS011;34865;51.046;3.732;2022-07-05T13:14:03;1.73;;;1.05;;
23072;SDS011;34865;51.046;3.732;2022-07-05T13:16:29;6.22;;;1.45;;
23072;SDS011;34865;51.046;3.732;2022-07-05T13:18:54;6.88;;;1.90;;
23072;SDS011;34865;51.046;3.732;2022-07-05T13:21:30;15.15;;;2.03;;
23072;SDS011;34865;51.046;3.732;2022-07-05T13:23:56;11.20;;;4.32;;
23072;SDS011;34865;51.046;3.732;2022-07-05T13:26:21;6.43;;;1.48;;
23072;SDS011;34865;51.046;3.732;2022-07-05T13:28:47;6.35;;;1.45;;
23072;SDS011;34865;51.046;3.732;2022-07-05T13:31:13;7.93;;;1.65;;
23072;SDS011;34865;51.046;3.732;2022-07-05T13:33:39;7.45;;;1.98;;
23072;SDS011;34865;51.046;3.732;2022-07-05T13:36:04;12.00;;;1.70;;
23072;SDS011;34865;51.046;3.732;2022-07-05T13:38:30;9.45;;;1.70;;
23072;SDS011;34865;51.046;3.732;2022-07-05T13:40:56;7.10;;;1.60;;
23072;SDS011;34865;51.046;3.732;2022-07-05T13:43:21;8.20;;;1.63;;
23072;SDS011;34865;51.046;3.732;2022-07-05T13:45:47;9.50;;;1.73;;
23072;SDS011;34865;51.046;3.732;2022-07-05T13:48:12;9.30;;;2.03;;
23072;SDS011;34865;51.046;3.732;2022-07-05T13:50:38;9.05;;;2.00;;
23072;SDS011;34865;51.046;3.732;2022-07-05T13:53:04;12.57;;;2.72;;
23072;SDS011;34865;51.046;3.732;2022-07-05T13:55:29;9.55;;;2.00;;
23072;SDS011;34865;51.046;3.732;2022-07-05T13:57:55;6.53;;;1.42;;
23072;SDS011;34865;51.046;3.732;2022-07-05T14:00:22;12.98;;;2.90;;
23072;SDS011;34865;51.046;3.732;2022-07-05T14:02:48;4.15;;;1.67;;
23072;SDS011;34865;51.046;3.732;2022-07-05T14:05:14;9.90;;;2.30;;
23072;SDS011;34865;51.046;3.732;2022-07-05T14:07:41;10.98;;;2.60;;
23072;SDS011;34865;51.046;3.732;2022-07-05T14:10:07;6.30;;;1.50;;
23072;SDS011;34865;51.046;3.732;2022-07-05T14:12:33;13.20;;;2.22;;
23072;SDS011;34865;51.046;3.732;2022-07-05T14:14:58;20.20;;;1.95;;
23072;SDS011;34865;51.046;3.732;2022-07-05T14:17:24;5.85;;;1.30;;
23072;SDS011;34865;51.046;3.732;2022-07-05T14:19:50;8.18;;;1.42;;
23072;SDS011;34865;51.046;3.732;2022-07-05T14:22:15;18.30;;;2.70;;
23072;SDS011;34865;51.046;3.732;2022-07-05T14:24:41;9.45;;;2.28;;
23072;SDS011;34865;51.046;3.732;2022-07-05T14:27:06;11.73;;;1.60;;
23072;SDS011;34865;51.046;3.732;2022-07-05T14:29:33;4.97;;;1.15;;
23072;SDS011;34865;51.046;3.732;2022-07-05T14:31:59;6.45;;;1.25;;
23072;SDS011;34865;51.046;3.732;2022-07-05T14:34:25;12.00;;;3.25;;
23072;SDS011;34865;51.046;3.732;2022-07-05T14:36:52;6.32;;;1.40;;
23072;SDS011;34865;51.046;3.732;2022-07-05T14:39:18;4.68;;;1.00;;
23072;SDS011;34865;51.046;3.732;2022-07-05T14:41:44;29.35;;;3.78;;
23072;SDS011;34865;51.046;3.732;2022-07-05T14:44:10;8.98;;;1.90;;
23072;SDS011;34865;51.046;3.732;2022-07-05T14:46:36;2.08;;;1.17;;
23072;SDS011;34865;51.046;3.732;2022-07-05T14:49:02;7.10;;;1.50;;
23072;SDS011;34865;51.046;3.732;2022-07-05T14:51:27;5.50;;;1.10;;
23072;SDS011;34865;51.046;3.732;2022-07-05T14:53:53;7.28;;;1.50;;
23072;SDS011;34865;51.046;3.732;2022-07-05T14:56:19;5.20;;;1.30;;
23072;SDS011;34865;51.046;3.732;2022-07-05T14:58:44;4.72;;;1.23;;
23072;SDS011;34865;51.046;3.732;2022-07-05T15:01:10;8.68;;;1.58;;
23072;SDS011;34865;51.046;3.732;2022-07-05T15:03:36;6.43;;;1.65;;
23072;SDS011;34865;51.046;3.732;2022-07-05T15:06:02;10.40;;;2.10;;
23072;SDS011;34865;51.046;3.732;2022-07-05T15:08:31;2.50;;;1.25;;
23072;SDS011;34865;51.046;3.732;2022-07-05T15:10:56;7.95;;;2.17;;